createdAt,value
2022-09-11T00:01:43.511Z,13.02
2022-09-11T00:04:13.318Z,12.93
2022-09-11T00:06:41.546Z,13.00
2022-09-11T00:09:10.037Z,13.00
2022-09-11T00:11:41.700Z,12.88
2022-09-11T00:14:11.436Z,12.95
2022-09-11T00:16:42.707Z,13.03
2022-09-11T00:19:15.925Z,12.44
2022-09-11T00:21:44.382Z,12.88
2022-09-11T00:24:12.720Z,12.98
2022-09-11T00:26:42.521Z,12.90
2022-09-11T00:29:11.832Z,13.00
2022-09-11T00:31:40.262Z,12.77
2022-09-11T00:34:08.511Z,12.90
2022-09-11T00:36:41.373Z,13.02
2022-09-11T00:39:10.870Z,12.97
2022-09-11T00:41:42.857Z,12.90
2022-09-11T00:44:57.722Z,12.97
2022-09-11T00:47:26.131Z,12.95
2022-09-11T00:49:57.944Z,12.94
2022-09-11T00:52:33.468Z,13.04
2022-09-11T00:55:07.376Z,12.78
2022-09-11T00:57:40.698Z,13.12
2022-09-11T01:00:12.753Z,12.96
2022-09-11T01:02:44.850Z,13.07
2022-09-11T01:05:16.460Z,13.00
2022-09-11T01:07:48.503Z,13.09
2022-09-11T01:10:16.752Z,12.85
2022-09-11T01:12:54.651Z,12.88
2022-09-11T01:15:30.369Z,12.87
2022-09-11T01:18:08.042Z,13.02
2022-09-11T01:20:53.760Z,12.92
2022-09-11T01:24:09.231Z,12.86
2022-09-11T01:27:00.212Z,12.82
2022-09-11T01:29:33.803Z,12.43
2022-09-11T01:32:11.758Z,12.84
2022-09-11T01:34:48.325Z,12.91
2022-09-11T01:37:25.319Z,12.95
2022-09-11T01:40:10.798Z,12.41
2022-09-11T01:42:41.050Z,12.95
2022-09-11T01:45:16.515Z,12.92
2022-09-11T01:47:49.508Z,12.85
2022-09-11T01:50:20.978Z,13.04
2022-09-11T01:52:53.285Z,12.87
2022-09-11T01:55:26.777Z,12.87
2022-09-11T01:58:06.621Z,12.88
2022-09-11T02:00:39.503Z,12.98
2022-09-11T02:03:12.154Z,12.91
2022-09-11T02:05:50.733Z,12.93
2022-09-11T02:08:29.147Z,13.02
2022-09-11T02:11:03.477Z,13.06
2022-09-11T02:13:38.166Z,12.21
2022-09-11T02:16:19.522Z,12.94
2022-09-11T02:18:59.691Z,13.05
2022-09-11T02:21:28.541Z,12.99
2022-09-11T02:23:57.344Z,13.17
2022-09-11T02:26:28.741Z,13.14
2022-09-11T02:28:57.251Z,13.03
2022-09-11T02:31:27.818Z,13.08
2022-09-11T02:33:57.857Z,13.03
2022-09-11T02:37:15.885Z,13.10
2022-09-11T02:40:04.726Z,13.05
2022-09-11T02:42:46.136Z,12.57
2022-09-11T02:45:29.862Z,13.03
2022-09-11T02:48:11.847Z,12.81
2022-09-11T02:50:45.600Z,13.03
2022-09-11T02:53:23.965Z,13.01
2022-09-11T02:56:01.616Z,12.96
2022-09-11T02:58:37.511Z,12.94
2022-09-11T03:01:31.795Z,12.93
2022-09-11T03:04:02.489Z,12.93
2022-09-11T03:06:30.827Z,12.92
2022-09-11T03:08:59.020Z,12.99
2022-09-11T03:11:27.731Z,12.98
2022-09-11T03:13:57.532Z,12.97
2022-09-11T03:16:26.037Z,12.86
2022-09-11T03:18:54.273Z,12.97
2022-09-11T03:21:24.210Z,12.89
2022-09-11T03:23:52.443Z,12.88
2022-09-11T03:26:21.250Z,12.97
2022-09-11T03:28:49.411Z,12.83
2022-09-11T03:31:17.731Z,12.88
2022-09-11T03:33:45.953Z,13.00
2022-09-11T03:36:14.837Z,12.99
2022-09-11T03:38:45.279Z,12.98
2022-09-11T03:41:13.528Z,12.95
2022-09-11T03:43:41.851Z,13.06
2022-09-11T03:46:10.266Z,12.88
2022-09-11T03:48:38.490Z,12.92
2022-09-11T03:51:07.062Z,12.93
2022-09-11T03:53:35.789Z,12.92
2022-09-11T03:56:06.448Z,12.89
2022-09-11T03:58:41.157Z,12.88
2022-09-11T04:01:11.427Z,13.50
2022-09-11T04:03:57.107Z,12.97
2022-09-11T04:06:44.813Z,12.85
2022-09-11T04:09:13.947Z,12.74
2022-09-11T04:11:43.466Z,12.94
2022-09-11T04:14:23.474Z,12.92
2022-09-11T04:16:54.714Z,12.82
2022-09-11T04:19:23.615Z,12.92
2022-09-11T04:21:51.974Z,12.97
2022-09-11T04:24:20.184Z,12.86
2022-09-11T04:26:50.042Z,12.93
2022-09-11T04:29:24.537Z,12.85
2022-09-11T04:31:54.953Z,13.08
2022-09-11T04:34:26.390Z,12.99
2022-09-11T04:36:55.422Z,12.83
2022-09-11T04:39:24.598Z,13.05
2022-09-11T04:41:55.358Z,12.94
2022-09-11T04:44:24.121Z,12.93
2022-09-11T04:46:52.509Z,12.94
2022-09-11T04:49:21.703Z,12.85
2022-09-11T04:51:50.142Z,12.99
2022-09-11T04:54:22.193Z,12.90
2022-09-11T04:56:50.914Z,11.90
2022-09-11T04:59:24.071Z,12.88
2022-09-11T05:02:15.161Z,12.99
2022-09-11T05:04:46.714Z,12.90
2022-09-11T05:07:14.951Z,12.96
2022-09-11T05:09:47.231Z,12.97
2022-09-11T05:12:17.721Z,13.03
2022-09-11T05:14:47.250Z,12.96
2022-09-11T05:17:15.533Z,12.89
2022-09-11T05:19:44.701Z,12.98
2022-09-11T05:22:13.673Z,12.94
2022-09-11T05:24:47.083Z,12.90
2022-09-11T05:27:15.369Z,12.95
2022-09-11T05:29:44.107Z,12.93
2022-09-11T05:32:15.502Z,12.93
2022-09-11T05:34:43.661Z,13.03
2022-09-11T05:37:15.298Z,13.08
2022-09-11T05:39:49.096Z,13.10
2022-09-11T05:42:17.992Z,13.08
2022-09-11T05:44:50.990Z,13.03
2022-09-11T05:47:20.868Z,13.12
2022-09-11T05:49:52.691Z,12.95
2022-09-11T05:52:21.263Z,13.11
2022-09-11T05:54:49.969Z,13.10
2022-09-11T05:57:19.901Z,13.09
2022-09-11T05:59:49.057Z,13.14
2022-09-11T06:02:17.374Z,13.05
2022-09-11T06:04:59.798Z,13.08
2022-09-11T06:07:28.394Z,13.20
2022-09-11T06:10:02.331Z,13.24
2022-09-11T06:12:32.469Z,13.02
2022-09-11T06:15:00.988Z,13.10
2022-09-11T06:17:29.341Z,13.23
2022-09-11T06:19:59.049Z,13.16
2022-09-11T06:22:29.311Z,13.16
2022-09-11T06:24:57.980Z,13.23
2022-09-11T06:27:26.203Z,13.08
2022-09-11T06:29:55.449Z,13.13
2022-09-11T06:32:23.672Z,13.11
2022-09-11T06:34:53.475Z,13.20
2022-09-11T06:37:23.045Z,13.22
2022-09-11T06:39:51.822Z,13.21
2022-09-11T06:42:26.285Z,13.05
2022-09-11T06:44:54.625Z,13.15
2022-09-11T06:47:22.871Z,13.14
2022-09-11T06:49:51.097Z,13.17
2022-09-11T06:52:35.745Z,13.28
2022-09-11T06:55:14.462Z,13.22
2022-09-11T06:57:48.206Z,13.20
2022-09-11T07:00:20.715Z,13.30
2022-09-11T07:02:49.297Z,13.34
2022-09-11T07:05:18.146Z,13.38
2022-09-11T07:07:53.071Z,12.86
2022-09-11T07:10:21.345Z,13.42
2022-09-11T07:12:55.652Z,13.01
2022-09-11T07:15:24.069Z,13.46
2022-09-11T07:17:52.414Z,13.50
2022-09-11T07:20:22.170Z,13.46
2022-09-11T07:22:51.811Z,13.37
2022-09-11T07:25:21.891Z,13.53
2022-09-11T07:27:51.887Z,13.50
2022-09-11T07:30:21.004Z,13.45
2022-09-11T07:32:55.112Z,13.44
2022-09-11T07:35:23.965Z,13.39
2022-09-11T07:37:55.586Z,13.43
2022-09-11T07:40:28.329Z,13.47
2022-09-11T07:42:59.493Z,13.55
2022-09-11T07:45:29.201Z,13.60
2022-09-11T07:47:58.263Z,13.60
2022-09-11T07:50:26.932Z,13.53
2022-09-11T07:52:56.535Z,13.46
2022-09-11T07:55:25.183Z,13.54
2022-09-11T07:57:55.255Z,13.59
2022-09-11T08:00:24.609Z,13.52
2022-09-11T08:06:00.158Z,13.70
2022-09-11T08:08:31.303Z,13.74
2022-09-11T08:11:06.781Z,13.79
2022-09-11T08:13:36.850Z,13.77
2022-09-11T08:16:05.263Z,13.93
2022-09-11T08:18:35.208Z,14.00
2022-09-11T08:21:05.847Z,14.23
2022-09-11T08:23:40.608Z,14.10
2022-09-11T08:26:12.176Z,14.05
2022-09-11T08:28:44.978Z,14.14
2022-09-11T08:31:14.653Z,14.21
2022-09-11T08:33:42.959Z,14.32
2022-09-11T08:36:14.115Z,14.45
2022-09-11T08:38:44.843Z,14.46
2022-09-11T08:41:29.137Z,14.40
2022-09-11T08:44:01.534Z,14.33
2022-09-11T08:46:36.707Z,14.35
2022-09-11T08:49:13.818Z,14.34
2022-09-11T08:51:44.746Z,14.16
2022-09-11T08:54:27.503Z,14.32
2022-09-11T08:57:12.577Z,14.49
2022-09-11T09:00:05.430Z,14.47
2022-09-11T09:03:17.063Z,14.46
2022-09-11T09:05:56.417Z,14.40
2022-09-11T09:08:44.847Z,14.25
2022-09-11T09:11:28.655Z,14.32
2022-09-11T09:14:25.518Z,14.42
2022-09-11T09:16:59.169Z,14.33
2022-09-11T09:19:32.757Z,14.29
2022-09-11T09:22:11.513Z,14.39
2022-09-11T09:24:47.402Z,14.24
2022-09-11T09:27:22.429Z,14.28
2022-09-11T09:29:55.775Z,14.28
2022-09-11T09:32:32.304Z,14.43
2022-09-11T09:35:11.975Z,14.61
2022-09-11T09:37:40.207Z,14.59
2022-09-11T09:40:11.035Z,14.63
2022-09-11T09:43:21.636Z,14.66
2022-09-11T09:46:14.796Z,14.69
2022-09-11T09:48:43.445Z,14.71
2022-09-11T09:51:15.012Z,14.77
2022-09-11T09:53:46.871Z,14.75
2022-09-11T09:56:19.270Z,14.86
2022-09-11T09:59:02.570Z,14.40
2022-09-11T10:01:53.986Z,14.88
2022-09-11T10:04:24.456Z,14.90
2022-09-11T10:06:55.371Z,15.10
2022-09-11T10:09:29.487Z,15.36
2022-09-11T10:12:03.494Z,15.49
2022-09-11T10:14:52.060Z,15.32
2022-09-11T10:17:31.326Z,15.73
2022-09-11T10:20:22.974Z,15.86
2022-09-11T10:22:52.386Z,15.77
2022-09-11T10:25:26.425Z,15.72
2022-09-11T10:28:05.795Z,15.71
2022-09-11T10:30:39.043Z,15.86
2022-09-11T10:33:18.251Z,15.88
2022-09-11T10:35:55.150Z,16.02
2022-09-11T10:38:31.329Z,15.86
2022-09-11T10:41:08.939Z,15.82
2022-09-11T10:43:47.259Z,16.05
2022-09-11T10:46:39.579Z,16.22
2022-09-11T10:49:20.282Z,16.55
2022-09-11T10:52:05.348Z,16.49
2022-09-11T10:54:52.159Z,16.21
2022-09-11T10:57:29.011Z,16.36
2022-09-11T11:00:08.203Z,16.59
2022-09-11T11:02:41.371Z,16.74
2022-09-11T11:05:21.373Z,17.08
2022-09-11T11:08:28.223Z,17.11
2022-09-11T11:11:14.816Z,17.08
2022-09-11T11:14:08.314Z,16.95
2022-09-11T11:16:51.274Z,16.73
2022-09-11T11:19:54.978Z,16.49
2022-09-11T11:22:48.110Z,15.98
2022-09-11T11:25:21.312Z,15.79
2022-09-11T11:28:34.241Z,15.79
2022-09-11T11:31:18.150Z,15.94
2022-09-11T11:34:09.239Z,15.74
2022-09-11T11:36:46.099Z,15.75
2022-09-11T11:39:24.070Z,15.90
2022-09-11T11:42:07.115Z,15.79
2022-09-11T11:44:41.538Z,16.17
2022-09-11T11:47:11.647Z,16.62
2022-09-11T11:49:56.079Z,16.75
2022-09-11T11:52:39.486Z,16.84
2022-09-11T11:55:18.474Z,16.20
2022-09-11T11:57:57.305Z,16.94
2022-09-11T12:00:26.267Z,17.07
2022-09-11T12:03:02.758Z,17.23
2022-09-11T12:05:34.968Z,17.43
2022-09-11T12:08:04.819Z,17.19
2022-09-11T12:10:37.945Z,18.49
2022-09-11T12:13:11.306Z,18.58
2022-09-11T12:15:39.997Z,18.68
2022-09-11T12:18:27.163Z,18.40
2022-09-11T12:21:36.292Z,18.22
2022-09-11T12:24:18.627Z,18.00
2022-09-11T12:26:47.447Z,17.83
2022-09-11T12:29:55.620Z,17.71
2022-09-11T12:32:41.891Z,17.68
2022-09-11T12:35:21.039Z,17.57
2022-09-11T12:37:58.338Z,17.57
2022-09-11T12:40:37.628Z,17.63
2022-09-11T12:43:49.287Z,17.75
2022-09-11T12:47:08.389Z,17.88
2022-09-11T12:49:37.513Z,17.90
2022-09-11T12:52:05.855Z,17.95
2022-09-11T12:54:42.367Z,18.09
2022-09-11T12:57:22.663Z,18.16
2022-09-11T12:59:56.547Z,18.48
2022-09-11T13:02:31.557Z,18.87
2022-09-11T13:04:59.834Z,19.14
2022-09-11T13:07:36.052Z,19.38
2022-09-11T13:10:11.053Z,19.37
2022-09-11T13:12:52.198Z,19.46
2022-09-11T13:15:41.103Z,19.11
2022-09-11T13:18:36.296Z,19.18
2022-09-11T13:21:16.281Z,19.05
2022-09-11T13:23:44.581Z,19.05
2022-09-11T13:26:25.172Z,18.93
2022-09-11T13:28:57.503Z,18.89
2022-09-11T13:31:34.675Z,18.94
2022-09-11T13:34:06.267Z,18.89
2022-09-11T13:36:37.321Z,18.69
2022-09-11T13:39:06.057Z,18.59
2022-09-11T13:41:43.722Z,17.51
2022-09-11T13:44:23.397Z,18.35
2022-09-11T13:46:53.203Z,18.36
2022-09-11T13:49:33.691Z,18.18
2022-09-11T13:52:02.217Z,18.37
2022-09-11T13:54:34.443Z,18.36
2022-09-11T13:57:28.157Z,18.31
2022-09-11T13:59:57.383Z,18.34
2022-09-11T14:02:40.296Z,18.34
2022-09-11T14:05:16.316Z,18.28
2022-09-11T14:07:57.247Z,18.37
2022-09-11T14:10:30.054Z,18.38
2022-09-11T14:13:11.063Z,18.29
2022-09-11T14:15:42.950Z,18.14
2022-09-11T14:18:22.717Z,18.29
2022-09-11T14:20:51.049Z,18.77
2022-09-11T14:23:24.944Z,18.36
2022-09-11T14:26:14.814Z,18.39
2022-09-11T14:29:01.101Z,18.40
2022-09-11T14:31:36.886Z,18.46
2022-09-11T14:34:22.016Z,18.58
2022-09-11T14:36:57.678Z,18.54
2022-09-11T14:39:34.332Z,18.68
2022-09-11T14:42:03.527Z,18.53
2022-09-11T14:44:33.882Z,18.65
2022-09-11T14:47:02.189Z,18.49
2022-09-11T14:49:30.577Z,18.63
2022-09-11T14:52:01.611Z,18.77
2022-09-11T14:54:32.007Z,18.79
2022-09-11T14:57:00.994Z,19.02
2022-09-11T14:59:30.042Z,18.80
2022-09-11T15:01:59.665Z,18.92
2022-09-11T15:04:29.539Z,19.03
2022-09-11T15:06:57.909Z,18.95
2022-09-11T15:09:26.220Z,18.95
2022-09-11T15:11:54.425Z,19.08
2022-09-11T15:14:44.600Z,18.96
2022-09-11T15:17:14.909Z,19.20
2022-09-11T15:19:45.736Z,18.92
2022-09-11T15:22:14.163Z,18.93
2022-09-11T15:24:42.701Z,18.92
2022-09-11T15:27:11.282Z,18.95
2022-09-11T15:29:39.779Z,18.82
2022-09-11T15:32:09.797Z,18.82
2022-09-11T15:34:40.498Z,18.90
2022-09-11T15:37:08.709Z,18.81
2022-09-11T15:39:37.035Z,19.06
2022-09-11T15:42:07.538Z,18.87
2022-09-11T15:44:37.363Z,18.80
2022-09-11T15:47:06.202Z,18.78
2022-09-11T15:49:41.721Z,18.76
2022-09-11T15:52:10.019Z,18.66
2022-09-11T15:54:38.276Z,18.37
2022-09-11T15:57:06.662Z,18.46
2022-09-11T15:59:34.859Z,18.57
2022-09-11T16:02:03.206Z,18.58
2022-09-11T16:04:32.652Z,18.36
2022-09-11T16:07:02.203Z,18.42
2022-09-11T16:09:33.013Z,18.64
2022-09-11T16:14:54.124Z,18.41
2022-09-11T16:17:26.738Z,18.41
2022-09-11T16:19:54.899Z,18.32
2022-09-11T16:22:25.679Z,18.40
2022-09-11T16:24:54.236Z,18.48
2022-09-11T16:27:29.301Z,18.46
2022-09-11T16:32:46.129Z,18.50
2022-09-11T16:35:14.386Z,18.67
2022-09-11T16:37:44.163Z,18.57
2022-09-11T16:40:12.449Z,18.44
2022-09-11T16:42:40.958Z,18.26
2022-09-11T16:45:10.199Z,18.33
2022-09-11T16:47:38.435Z,18.25
2022-09-11T16:50:08.597Z,18.21
2022-09-11T16:52:37.105Z,18.19
2022-09-11T16:55:09.521Z,18.28
2022-09-11T16:57:37.993Z,18.06
2022-09-11T17:00:08.936Z,17.65
2022-09-11T17:02:37.676Z,18.07
2022-09-11T17:05:06.805Z,18.01
2022-09-11T17:07:35.389Z,17.87
2022-09-11T17:10:06.869Z,17.93
2022-09-11T17:12:37.208Z,17.94
2022-09-11T17:15:07.013Z,17.89
2022-09-11T17:17:36.874Z,17.68
2022-09-11T17:20:09.296Z,17.73
2022-09-11T17:22:37.971Z,17.55
2022-09-11T17:25:07.312Z,17.48
2022-09-11T17:27:37.226Z,17.47
2022-09-11T17:30:06.334Z,17.29
2022-09-11T17:32:34.524Z,17.46
2022-09-11T17:35:02.674Z,17.34
2022-09-11T17:37:30.911Z,17.41
2022-09-11T17:39:59.186Z,17.33
2022-09-11T17:42:31.494Z,17.08
2022-09-11T17:45:02.761Z,17.27
2022-09-11T17:47:32.952Z,17.08
2022-09-11T17:50:01.670Z,17.08
2022-09-11T17:52:31.431Z,17.05
2022-09-11T17:54:59.659Z,16.88
2022-09-11T17:57:28.338Z,16.80
2022-09-11T17:59:56.666Z,16.73
2022-09-11T18:02:26.692Z,16.66
2022-09-11T18:04:54.879Z,16.61
2022-09-11T18:07:23.105Z,16.58
2022-09-11T18:09:56.073Z,16.56
2022-09-11T18:12:26.049Z,16.30
2022-09-11T18:14:56.907Z,16.26
2022-09-11T18:17:26.722Z,16.17
2022-09-11T18:19:54.889Z,14.73
2022-09-11T18:22:23.328Z,15.91
2022-09-11T18:24:52.048Z,15.84
2022-09-11T18:27:20.306Z,15.73
2022-09-11T18:29:50.063Z,15.66
2022-09-11T18:32:19.912Z,15.63
2022-09-11T18:34:49.636Z,15.47
2022-09-11T18:37:18.188Z,15.41
2022-09-11T18:39:48.345Z,15.39
2022-09-11T18:42:18.023Z,15.30
2022-09-11T18:44:46.807Z,15.28
2022-09-11T18:47:15.094Z,15.29
2022-09-11T18:49:43.901Z,15.32
2022-09-11T18:52:14.690Z,15.11
2022-09-11T18:54:42.973Z,14.96
2022-09-11T18:57:11.291Z,14.99
2022-09-11T18:59:39.617Z,14.90
2022-09-11T19:02:08.457Z,14.84
2022-09-11T19:04:36.846Z,14.90
2022-09-11T19:07:05.769Z,14.69
2022-09-11T19:09:35.435Z,14.82
2022-09-11T19:12:05.376Z,14.62
2022-09-11T19:14:35.821Z,14.57
2022-09-11T19:17:04.331Z,14.43
2022-09-11T19:19:32.525Z,14.37
2022-09-11T19:22:00.843Z,14.34
2022-09-11T19:24:30.081Z,14.34
2022-09-11T19:27:00.194Z,14.26
2022-09-11T19:29:28.576Z,14.06
2022-09-11T19:31:56.825Z,14.09
2022-09-11T19:34:25.097Z,14.13
2022-09-11T19:36:53.488Z,14.12
2022-09-11T19:39:22.502Z,14.22
2022-09-11T19:41:51.781Z,14.03
2022-09-11T19:44:21.676Z,13.99
2022-09-11T19:46:53.398Z,13.88
2022-09-11T19:49:21.663Z,13.70
2022-09-11T19:51:54.505Z,13.69
2022-09-11T19:54:23.169Z,13.74
2022-09-11T19:56:51.784Z,13.72
2022-09-11T19:59:21.373Z,13.71
2022-09-11T20:01:49.754Z,13.63
2022-09-11T20:04:20.738Z,13.57
2022-09-11T20:09:36.738Z,13.41
2022-09-11T20:12:31.260Z,13.13
2022-09-11T20:15:01.378Z,13.04
2022-09-11T20:17:29.778Z,13.27
2022-09-11T20:19:59.918Z,13.18
2022-09-11T20:22:28.585Z,13.35
2022-09-11T20:24:56.698Z,13.34
2022-09-11T20:27:24.912Z,13.41
2022-09-11T20:29:53.089Z,13.27
2022-09-11T20:32:22.647Z,13.26
2022-09-11T20:34:50.938Z,13.19
2022-09-11T20:37:19.154Z,13.13
2022-09-11T20:39:47.358Z,13.06
2022-09-11T20:42:15.592Z,12.92
2022-09-11T20:44:45.352Z,12.89
2022-09-11T20:47:14.117Z,12.88
2022-09-11T20:49:43.728Z,12.88
2022-09-11T20:52:12.585Z,12.81
2022-09-11T20:54:40.893Z,12.67
2022-09-11T20:57:10.119Z,12.67
2022-09-11T20:59:38.343Z,12.67
2022-09-11T21:02:06.672Z,12.64
2022-09-11T21:04:35.008Z,12.53
2022-09-11T21:07:04.889Z,12.53
2022-09-11T21:09:33.238Z,12.50
2022-09-11T21:12:01.426Z,12.53
2022-09-11T21:14:30.244Z,11.90
2022-09-11T21:16:58.442Z,12.51
2022-09-11T21:19:26.690Z,12.45
2022-09-11T21:21:54.908Z,12.38
2022-09-11T21:24:24.452Z,12.46
2022-09-11T21:26:52.639Z,12.35
2022-09-11T21:29:20.840Z,12.27
2022-09-11T21:31:49.081Z,12.43
2022-09-11T21:34:17.429Z,12.31
2022-09-11T21:36:45.593Z,12.29
2022-09-11T21:39:13.934Z,12.26
2022-09-11T21:41:43.498Z,12.14
2022-09-11T21:44:11.676Z,12.22
2022-09-11T21:46:39.876Z,12.25
2022-09-11T21:49:08.072Z,12.21
2022-09-11T21:51:36.255Z,12.22
2022-09-11T21:54:04.505Z,12.27
2022-09-11T21:56:34.629Z,12.26
2022-09-11T21:59:04.144Z,12.17
2022-09-11T22:01:32.774Z,12.12
2022-09-11T22:04:01.701Z,12.12
2022-09-11T22:06:31.241Z,12.03
2022-09-11T22:08:59.709Z,11.77
2022-09-11T22:11:28.241Z,11.81
2022-09-11T22:13:56.652Z,11.81
2022-09-11T22:16:26.224Z,11.75
2022-09-11T22:18:55.950Z,11.77
2022-09-11T22:21:24.426Z,11.62
2022-09-11T22:23:52.700Z,11.65
2022-09-11T22:26:23.823Z,11.45
2022-09-11T22:28:52.996Z,10.92
2022-09-11T22:31:25.440Z,11.36
2022-09-11T22:33:55.034Z,11.52
2022-09-11T22:36:25.584Z,11.44
2022-09-11T22:38:54.467Z,11.38
2022-09-11T22:41:23.581Z,11.55
2022-09-11T22:43:52.156Z,11.41
2022-09-11T22:46:21.564Z,11.55
2022-09-11T22:48:51.400Z,11.42
2022-09-11T22:51:19.918Z,11.46
2022-09-11T22:53:48.217Z,11.56
2022-09-11T22:56:16.831Z,11.51
2022-09-11T22:58:45.254Z,11.39
2022-09-11T23:01:21.133Z,10.51
2022-09-11T23:03:52.494Z,11.30
2022-09-11T23:06:40.959Z,11.16
2022-09-11T23:09:12.677Z,11.10
2022-09-11T23:11:41.358Z,10.90
2022-09-11T23:14:14.223Z,10.94
2022-09-11T23:16:43.686Z,10.86
2022-09-11T23:19:14.942Z,10.90
2022-09-11T23:21:43.518Z,10.87
2022-09-11T23:24:14.633Z,10.90
2022-09-11T23:26:43.384Z,10.88
2022-09-11T23:29:12.556Z,10.79
2022-09-11T23:31:41.743Z,10.77
2022-09-11T23:34:14.884Z,10.83
2022-09-11T23:36:43.667Z,10.63
2022-09-11T23:39:12.102Z,10.46
2022-09-11T23:41:40.331Z,10.59
2022-09-11T23:44:08.520Z,10.67
2022-09-11T23:46:36.733Z,10.70
2022-09-11T23:49:06.281Z,10.70
2022-09-11T23:51:35.896Z,10.57
2022-09-11T23:54:05.453Z,10.66
2022-09-11T23:56:33.918Z,10.73
2022-09-11T23:59:02.133Z,10.77
